Time;durP1;ratioP1;P1;durP2;ratioP2;P2;SDS_P1;SDS_P2;PMS_P1;PMS_P2;Temp;Humidity;BMP_temperature;BMP_pressure;BME280_temperature;BME280_humidity;BME280_pressure;Samples;Min_cycle;Max_cycle;Signal;HPM_P1;HPM_P2
2024/04/26 00:01:32;;;;;;;8.70;3.97;;;5.30;99.90;;;8.59;82.97;99547.06;5339240;26;20016;-84
2024/04/26 00:03:58;;;;;;;7.00;3.63;;;5.30;99.90;;;8.43;83.37;99538.44;5338538;26;20096;-85
2024/04/26 00:06:24;;;;;;;6.78;3.58;;;5.40;99.90;;;8.53;82.99;99540.66;5368791;26;20011;-84
2024/04/26 00:08:49;;;;;;;7.10;3.53;;;5.40;99.90;;;8.42;82.58;99539.50;5339065;26;19997;-85
2024/04/26 00:11:15;;;;;;;6.60;3.13;;;5.40;99.90;;;8.68;82.23;99553.81;5336102;26;20004;-84
2024/04/26 00:13:41;;;;;;;7.82;3.42;;;5.40;99.90;;;9.12;79.59;99550.84;5336923;26;20019;-84
2024/04/26 00:16:06;;;;;;;6.35;3.55;;;5.40;99.90;;;8.57;81.14;99535.59;5338882;26;20004;-84
2024/04/26 00:18:32;;;;;;;5.75;3.15;;;5.40;99.90;;;8.49;82.82;99542.13;5339084;26;20070;-83
2024/04/26 00:21:00;;;;;;;6.72;3.20;;;5.30;99.90;;;8.23;83.98;99556.91;5338570;26;19996;-85
2024/04/26 00:23:26;;;;;;;7.20;3.47;;;5.30;99.90;;;8.43;83.08;99538.44;5340282;26;20001;-85
2024/04/26 00:25:52;;;;;;;5.97;2.97;;;5.30;99.90;;;8.23;82.69;99537.91;5339097;26;20001;-84
2024/04/26 00:28:18;;;;;;;5.03;3.05;;;5.30;99.90;;;8.23;83.04;99527.03;5337378;26;20011;-84
2024/04/26 00:30:43;;;;;;;6.90;3.22;;;5.30;99.90;;;8.41;82.10;99531.59;5337989;26;20095;-85
2024/04/26 00:33:09;;;;;;;6.47;3.10;;;5.30;99.90;;;8.12;83.44;99502.28;5337886;26;20049;-84
2024/04/26 00:35:35;;;;;;;5.55;3.10;;;5.30;99.90;;;8.13;82.76;99525.66;5365867;26;20037;-84
2024/04/26 00:38:00;;;;;;;5.80;3.30;;;5.30;99.90;;;8.41;82.48;99524.25;5336706;26;20244;-84
2024/04/26 00:40:26;;;;;;;5.63;3.03;;;5.30;99.90;;;8.28;82.28;99513.56;5337889;26;20041;-84
2024/04/26 00:42:53;;;;;;;7.88;3.25;;;5.30;99.90;;;8.41;82.16;99515.28;5337724;26;20027;-85
2024/04/26 00:45:19;;;;;;;6.35;3.08;;;5.30;99.90;;;8.38;81.60;99513.84;5321370;26;20328;-83
2024/04/26 00:47:46;;;;;;;6.47;3.25;;;5.40;99.90;;;8.42;81.64;99508.78;5339937;26;20005;-84
2024/04/26 00:50:14;;;;;;;6.25;2.83;;;5.50;99.90;;;8.41;80.01;99507.94;5324377;26;19997;-85
2024/04/26 00:52:41;;;;;;;5.63;2.50;;;5.50;99.90;;;8.31;81.33;99500.34;5333899;26;20025;-84
2024/04/26 00:55:10;;;;;;;6.47;3.07;;;5.50;99.90;;;8.43;81.32;99510.44;5340129;26;19993;-84
2024/04/26 00:57:37;;;;;;;7.95;3.50;;;5.50;99.90;;;8.30;81.09;99508.75;5340831;26;20036;-83
2024/04/26 01:00:03;;;;;;;5.97;2.60;;;5.50;99.90;;;8.23;81.69;99497.16;5325083;26;20456;-86
2024/04/26 01:02:31;;;;;;;6.07;2.88;;;5.50;99.90;;;8.31;82.14;99510.41;5340453;26;20041;-84
2024/04/26 01:04:56;;;;;;;4.55;2.65;;;5.50;99.90;;;8.32;80.63;99493.03;5343572;26;20000;-83
2024/04/26 01:07:22;;;;;;;7.35;2.80;;;5.50;99.90;;;8.32;81.01;99506.63;5340680;26;20009;-86
2024/04/26 01:09:48;;;;;;;7.45;2.80;;;5.50;99.90;;;8.27;81.10;99514.63;5341667;26;20025;-84
2024/04/26 01:12:14;;;;;;;6.03;2.72;;;5.50;99.90;;;8.17;81.36;99505.13;5323622;26;20014;-85
2024/04/26 01:14:39;;;;;;;5.10;2.42;;;5.50;99.90;;;8.37;80.75;99495.88;5341429;26;20001;-84
2024/04/26 01:17:05;;;;;;;4.07;2.85;;;5.60;99.90;;;8.18;81.60;99512.22;5327291;26;20008;-87
2024/04/26 01:19:31;;;;;;;5.45;3.00;;;5.50;99.90;;;8.24;80.40;99494.19;5327157;26;19997;-85
2024/04/26 01:22:29;;;;;;;5.43;2.40;;;5.50;99.90;;;8.50;79.87;99503.06;5341780;26;20001;-85
2024/04/26 01:24:55;;;;;;;6.88;2.80;;;5.50;99.90;;;8.49;79.32;99507.69;5343154;26;20375;-85
2024/04/26 01:27:21;;;;;;;7.22;2.70;;;5.60;99.90;;;8.48;79.18;99505.97;5334063;26;20133;-83
2024/04/26 01:29:46;;;;;;;6.60;3.00;;;5.60;99.90;;;8.40;80.10;99503.56;5340204;26;20037;-85
2024/04/26 01:32:12;;;;;;;6.00;2.88;;;5.60;99.90;;;8.57;79.61;99513.84;5341796;26;20456;-84
2024/04/26 01:34:38;;;;;;;5.35;2.17;;;5.60;99.90;;;8.38;79.55;99504.88;5341702;26;20066;-84
2024/04/26 01:37:05;;;;;;;4.47;2.22;;;5.60;99.90;;;8.85;78.07;99504.22;5340536;26;20405;-84
2024/04/26 01:39:31;;;;;;;5.88;2.65;;;5.70;99.90;;;8.66;77.18;99509.72;5364278;26;20360;-86
2024/04/26 01:41:56;;;;;;;4.47;2.58;;;5.70;99.90;;;8.69;77.01;99506.53;5302293;26;20001;-85
2024/04/26 01:44:22;;;;;;;5.40;2.65;;;5.70;99.90;;;8.43;77.36;99502.28;5316944;26;20036;-85
2024/04/26 01:46:48;;;;;;;4.18;2.28;;;5.70;99.90;;;8.47;76.75;99501.59;5340774;26;20031;-85
2024/04/26 01:49:13;;;;;;;6.22;2.63;;;5.70;99.90;;;8.60;77.79;99503.31;5339697;26;20037;-84
2024/04/26 01:51:39;;;;;;;4.88;2.63;;;5.80;99.90;;;8.88;77.14;99501.03;5342743;26;20011;-84
2024/04/26 01:54:05;;;;;;;6.60;2.70;;;5.80;99.90;;;8.69;76.43;99500.28;5338743;26;20003;-84
2024/04/26 01:56:30;;;;;;;5.78;2.47;;;5.80;99.90;;;8.67;75.95;99486.91;5364000;26;20329;-83
2024/04/26 01:59:52;;;;;;;6.18;2.50;;;5.80;99.90;;;8.64;77.20;99492.81;5336098;26;20083;-84
2024/04/26 02:02:18;;;;;;;4.85;2.30;;;5.80;99.90;;;8.62;75.90;99486.78;5342077;26;20030;-83
2024/04/26 02:04:43;;;;;;;3.70;2.25;;;5.90;99.90;;;8.93;74.68;99490.28;5344531;26;20009;-86
2024/04/26 02:07:09;;;;;;;4.95;2.42;;;5.90;99.90;;;9.16;74.11;99494.94;5312015;26;20452;-85
2024/04/26 02:09:35;;;;;;;7.95;2.75;;;5.80;99.90;;;9.51;71.57;99493.25;5340010;26;20128;-85
2024/04/26 02:12:00;;;;;;;6.25;2.25;;;5.90;99.90;;;9.23;72.10;99496.69;5342013;26;20038;-84
2024/04/26 02:14:26;;;;;;;4.25;2.03;;;5.90;99.90;;;9.35;72.32;99497.50;5339202;26;20024;-83
2024/04/26 02:16:55;;;;;;;4.65;2.20;;;5.90;99.90;;;9.24;71.11;99496.44;5336815;26;20385;-83
2024/04/26 02:19:24;;;;;;;5.07;2.28;;;5.90;99.90;;;9.36;71.51;99504.59;5342021;26;20005;-86
2024/04/26 02:21:49;;;;;;;5.43;2.00;;;5.90;99.90;;;9.41;70.59;99493.84;5340215;26;20091;-84
2024/04/26 02:24:15;;;;;;;5.30;2.55;;;5.90;99.90;;;9.55;69.71;99489.00;5363586;26;20114;-83
2024/04/26 02:26:41;;;;;;;6.40;2.40;;;5.90;99.90;;;9.66;68.26;99495.47;5343279;26;20413;-84
2024/04/26 02:29:06;;;;;;;6.25;2.30;;;5.90;99.90;;;9.63;68.16;99488.63;5341311;26;20001;-86
2024/04/26 02:31:32;;;;;;;4.95;2.30;;;5.90;99.90;;;9.27;69.55;99482.34;5342835;26;20005;-84
2024/04/26 02:33:58;;;;;;;5.13;2.40;;;5.90;99.90;;;9.71;68.77;99481.16;5343068;26;20420;-85
2024/04/26 02:36:23;;;;;;;4.85;2.30;;;5.90;99.90;;;9.22;69.67;99487.69;5342499;26;20016;-86
2024/04/26 02:38:49;;;;;;;5.22;2.20;;;5.90;99.90;;;9.27;69.16;99490.53;5345620;26;20001;-85
2024/04/26 02:41:15;;;;;;;8.63;2.38;;;5.90;99.90;;;9.30;69.21;99483.78;5357692;26;20005;-85
2024/04/26 02:43:42;;;;;;;4.88;2.40;;;5.90;99.90;;;9.09;69.43;99475.13;5347510;26;20001;-85
2024/04/26 02:46:11;;;;;;;8.63;2.42;;;6.00;99.90;;;9.38;70.34;99488.06;5347000;26;20001;-83
2024/04/26 02:48:40;;;;;;;4.97;2.30;;;6.00;99.90;;;9.48;69.58;99491.00;5344956;26;20108;-85
2024/04/26 02:51:12;;;;;;;5.90;2.30;;;6.00;99.90;;;9.38;69.62;99483.41;5345045;26;20001;-86
2024/04/26 02:53:39;;;;;;;5.95;2.50;;;6.00;99.90;;;9.04;69.84;99478.59;5343717;26;20004;-85
2024/04/26 02:56:07;;;;;;;5.75;2.65;;;6.00;99.90;;;9.04;69.57;99483.19;5351730;26;20447;-85
2024/04/26 02:58:33;;;;;;;5.32;2.03;;;6.00;99.90;;;9.29;69.37;99480.25;5355404;26;20346;-84
2024/04/26 03:00:58;;;;;;;5.35;2.70;;;6.00;99.90;;;9.20;68.76;99477.06;5351288;26;20021;-84
2024/04/26 03:03:24;;;;;;;5.30;2.40;;;6.10;99.90;;;9.17;68.23;99472.09;5346066;26;20056;-83
2024/04/26 03:05:50;;;;;;;5.68;2.17;;;6.10;99.90;;;8.93;68.43;99471.22;5345806;26;20456;-87
2024/04/26 03:08:16;;;;;;;5.35;1.98;;;6.10;99.90;;;9.33;67.11;99467.81;5339703;26;20005;-84
2024/04/26 03:10:42;;;;;;;3.08;1.77;;;6.10;99.90;;;9.28;67.05;99475.88;5344066;26;20005;-84
2024/04/26 03:13:08;;;;;;;7.15;2.08;;;6.20;99.90;;;9.21;66.81;99475.16;5341846;26;20100;-87
2024/04/26 03:15:33;;;;;;;6.25;2.17;;;6.20;99.90;;;9.24;67.39;99480.13;5339108;26;20033;-86
2024/04/26 03:17:59;;;;;;;4.68;2.17;;;6.20;99.90;;;9.05;67.17;99466.63;5341707;26;20012;-87
2024/04/26 03:20:26;;;;;;;5.75;2.20;;;6.20;99.90;;;9.09;67.16;99466.16;5341453;26;19996;-85
2024/04/26 03:22:55;;;;;;;4.03;1.90;;;6.20;99.90;;;9.16;66.63;99472.31;5341085;26;20004;-85
2024/04/26 03:25:25;;;;;;;5.35;2.00;;;6.20;99.90;;;9.26;66.19;99467.09;5332962;26;19993;-86
2024/04/26 03:27:51;;;;;;;3.60;1.85;;;6.30;99.90;;;9.08;66.88;99459.88;5341264;26;20015;-84
2024/04/26 03:30:18;;;;;;;5.40;1.80;;;6.30;99.90;;;9.30;66.95;99478.34;5340823;26;20000;-86
2024/04/26 03:32:43;;;;;;;5.63;2.03;;;6.30;99.90;;;9.18;67.94;99473.75;5341727;26;20327;-84
2024/04/26 03:35:09;;;;;;;4.43;2.30;;;6.20;99.90;;;9.18;68.57;99479.19;5341963;26;20009;-83
2024/04/26 03:37:35;;;;;;;7.45;2.05;;;6.10;99.90;;;8.98;69.83;99482.22;5341090;26;20035;-85
2024/04/26 03:40:00;;;;;;;6.53;2.35;;;6.10;99.90;;;9.06;70.35;99489.22;5343717;26;20025;-86
2024/04/26 03:42:26;;;;;;;7.05;2.35;;;6.00;99.90;;;8.74;70.62;99484.91;5342470;26;20030;-85
2024/04/26 03:44:52;;;;;;;6.05;2.10;;;6.00;99.90;;;8.87;71.04;99488.50;5342356;26;20044;-87
2024/04/26 03:47:17;;;;;;;6.38;2.45;;;6.00;99.90;;;8.88;70.45;99482.00;5341255;26;20392;-82
2024/04/26 03:49:43;;;;;;;5.85;2.42;;;6.00;99.90;;;8.77;71.03;99481.75;5341212;26;20165;-89
2024/04/26 03:52:09;;;;;;;8.80;3.30;;;6.00;99.90;;;8.77;70.14;99476.31;5342472;26;20442;-85
2024/04/26 03:54:34;;;;;;;5.93;2.40;;;6.00;99.90;;;8.86;70.41;99465.06;5341193;26;20025;-86
2024/04/26 03:57:00;;;;;;;5.50;2.40;;;6.10;99.90;;;8.86;69.64;99475.97;5340589;26;20021;-84
2024/04/26 03:59:26;;;;;;;7.30;2.60;;;6.10;99.90;;;9.00;69.65;99474.66;5339239;26;20001;-84
2024/04/26 04:01:52;;;;;;;5.05;2.17;;;6.10;99.90;;;8.81;69.28;99479.38;5341220;26;20009;-84
2024/04/26 04:04:17;;;;;;;6.50;2.40;;;6.10;99.90;;;8.98;69.11;99484.13;5357046;26;20056;-87
2024/04/26 04:06:43;;;;;;;6.45;2.40;;;6.10;99.90;;;8.86;68.91;99478.69;5369857;26;20479;-86
2024/04/26 04:09:09;;;;;;;6.45;2.10;;;6.10;99.90;;;8.86;68.71;99465.06;5340342;26;20004;-89
2024/04/26 04:11:35;;;;;;;4.05;2.10;;;6.10;99.90;;;8.72;68.65;99470.72;5338265;26;19992;-86
2024/04/26 04:14:01;;;;;;;4.68;2.00;;;6.10;99.90;;;8.86;68.36;99467.78;5337245;26;20001;-83
2024/04/26 04:16:27;;;;;;;6.78;2.38;;;6.10;99.90;;;8.79;67.55;99465.19;5339952;26;20012;-84
2024/04/26 04:18:53;;;;;;;3.85;1.90;;;6.20;99.90;;;8.93;67.42;99457.63;5339966;26;20443;-86
2024/04/26 04:21:19;;;;;;;8.05;2.47;;;6.20;99.90;;;8.90;66.85;99455.38;5337553;26;20391;-87
2024/04/26 04:23:45;;;;;;;4.45;2.25;;;6.10;99.90;;;8.79;68.15;99462.47;5340583;26;20008;-88
2024/04/26 04:26:11;;;;;;;5.65;2.42;;;6.20;99.90;;;8.87;68.38;99464.00;5340409;26;20012;-86
2024/04/26 04:28:41;;;;;;;5.15;2.00;;;6.10;99.90;;;8.74;68.42;99465.06;5364529;26;20005;-83
2024/04/26 04:31:09;;;;;;;7.32;2.42;;;6.10;99.90;;;8.71;68.29;99454.66;5339911;26;20008;-87
2024/04/26 04:33:35;;;;;;;4.93;2.22;;;6.10;99.90;;;8.82;68.36;99469.34;5339944;26;20443;-87
2024/04/26 04:36:01;;;;;;;5.72;2.22;;;6.20;99.90;;;8.98;67.76;99465.09;5340562;26;20005;-86
2024/04/26 04:38:27;;;;;;;6.65;2.40;;;6.20;99.90;;;8.88;67.87;99468.38;5339611;26;20075;-84
2024/04/26 04:40:52;;;;;;;4.95;2.42;;;6.20;99.90;;;9.04;67.59;99459.53;5338231;26;20371;-84
2024/04/26 04:43:18;;;;;;;4.75;2.28;;;6.20;99.90;;;8.94;67.56;99472.06;5340254;26;19997;-84
2024/04/26 04:45:44;;;;;;;5.20;2.13;;;6.20;99.90;;;8.80;67.94;99461.41;5340550;26;20099;-87
2024/04/26 04:48:10;;;;;;;4.43;2.20;;;6.10;99.90;;;8.92;68.20;99469.56;5343388;26;20032;-87
2024/04/26 04:50:36;;;;;;;5.47;2.35;;;6.10;99.90;;;8.92;67.73;99464.13;5340732;26;20056;-86
2024/04/26 04:53:01;;;;;;;6.40;2.42;;;6.10;99.90;;;8.75;67.85;99467.56;5354174;26;20021;-88
2024/04/26 04:55:27;;;;;;;4.43;2.20;;;6.10;99.90;;;9.08;67.55;99470.75;5339640;26;20320;-86
2024/04/26 04:57:53;;;;;;;5.25;2.60;;;6.20;99.90;;;9.03;67.28;99462.50;5339413;26;20009;-86
2024/04/26 05:00:18;;;;;;;6.32;2.65;;;6.10;99.90;;;8.86;67.40;99465.06;5339903;26;20382;-92
2024/04/26 05:02:44;;;;;;;7.07;2.17;;;6.10;99.90;;;8.88;67.01;99450.16;5361883;26;19994;-84
2024/04/26 05:05:10;;;;;;;6.68;2.33;;;6.20;99.90;;;9.17;66.76;99465.81;5338828;26;20005;-85
2024/04/26 05:07:35;;;;;;;6.60;2.63;;;6.20;99.90;;;9.23;66.94;99461.31;5341394;26;20297;-83
2024/04/26 05:10:01;;;;;;;6.80;2.50;;;6.20;99.90;;;9.03;66.84;99463.34;5340439;26;20045;-91
2024/04/26 05:12:27;;;;;;;5.32;2.40;;;6.20;99.90;;;9.58;66.27;99468.63;5342252;26;20364;-90
2024/04/26 05:14:53;;;;;;;7.45;2.53;;;6.30;99.90;;;9.44;66.70;99471.59;5333286;26;20016;-86
2024/04/26 05:17:18;;;;;;;8.38;2.58;;;6.30;99.90;;;9.35;66.26;99457.53;5335916;26;20072;-90
2024/04/26 05:19:45;;;;;;;4.03;2.42;;;6.30;99.90;;;9.16;65.71;99462.28;5340466;26;20108;-90
2024/04/26 05:22:11;;;;;;;7.25;2.30;;;6.30;99.90;;;9.41;64.15;99461.16;5340848;26;20637;-89
2024/04/26 05:24:38;;;;;;;5.30;2.65;;;6.40;99.90;;;9.40;64.87;99462.22;5341627;26;20020;-88
2024/04/26 05:27:08;;;;;;;5.45;2.38;;;6.50;99.90;;;9.37;64.88;99468.16;5337482;26;20862;-90
2024/04/26 05:29:34;;;;;;;4.90;2.30;;;6.50;99.90;;;9.60;64.84;99466.47;5350181;26;20016;-89
2024/04/26 05:32:00;;;;;;;4.47;2.15;;;6.50;99.90;;;9.40;64.84;99470.41;5348934;26;20001;-88
2024/04/26 05:34:27;;;;;;;4.40;2.30;;;6.60;99.90;;;9.68;63.84;99468.84;5345246;26;20000;-87
2024/04/26 05:36:53;;;;;;;5.05;2.17;;;6.60;99.90;;;9.45;63.69;99470.53;5346614;26;20004;-85
2024/04/26 05:39:18;;;;;;;5.53;2.33;;;6.70;99.90;;;9.65;62.71;99452.97;5343361;26;20348;-88
2024/04/26 05:41:45;;;;;;;8.63;2.50;;;6.80;99.90;;;10.18;61.76;99469.28;5307294;26;20002;-91
2024/04/26 05:44:10;;;;;;;7.93;2.47;;;6.90;99.90;;;9.74;61.62;99459.72;5312500;26;20004;-91
2024/04/26 05:46:36;;;;;;;5.93;2.47;;;7.00;99.90;;;9.85;62.11;99479.81;5345381;26;20001;-89
2024/04/26 05:49:02;;;;;;;7.43;2.20;;;7.00;99.90;;;9.74;62.22;99480.66;5335666;26;20014;-92
2024/04/26 05:51:28;;;;;;;8.30;2.17;;;7.10;99.90;;;10.02;61.91;99470.88;5348364;26;20052;-91
2024/04/26 05:53:56;;;;;;;5.95;2.50;;;7.10;99.90;;;10.15;61.33;99476.06;5362044;26;20009;-88
2024/04/26 05:56:24;;;;;;;5.78;2.50;;;7.10;99.90;;;9.88;61.57;99476.63;5351848;26;20009;-88
2024/04/26 05:58:50;;;;;;;5.85;2.30;;;7.20;99.90;;;9.95;62.12;99470.19;5348656;26;20005;-91
2024/04/26 06:01:15;;;;;;;5.28;2.10;;;7.20;99.90;;;10.38;61.09;99482.50;5345429;26;19997;-91
2024/04/26 06:03:41;;;;;;;5.75;2.20;;;7.30;99.90;;;10.46;60.21;99476.66;5336373;26;20005;-90
2024/04/26 06:06:07;;;;;;;6.70;2.40;;;7.50;99.90;;;10.28;60.40;99471.38;5347477;26;19997;-89
2024/04/26 06:08:37;;;;;;;7.85;2.10;;;7.50;99.90;;;10.45;59.92;99474.16;5337855;26;20035;-89
2024/04/26 06:11:03;;;;;;;6.63;2.22;;;7.50;99.90;;;10.50;60.65;99485.19;5333021;26;20002;-88
2024/04/26 06:13:29;;;;;;;5.10;2.20;;;7.60;99.90;;;10.49;60.21;99476.16;5333312;26;20377;-87
2024/04/26 06:15:55;;;;;;;7.30;2.60;;;7.50;99.90;;;10.72;60.53;99477.13;5342634;26;20344;-90
2024/04/26 06:18:22;;;;;;;5.38;2.10;;;7.60;99.90;;;10.71;59.86;99478.19;5341341;26;20117;-91
2024/04/26 06:20:48;;;;;;;6.50;1.95;;;7.70;99.90;;;11.19;58.50;99475.16;5346150;26;20044;-91
2024/04/26 06:23:13;;;;;;;6.75;2.70;;;7.80;99.90;;;10.50;58.61;99464.19;5329514;26;20177;-90
2024/04/26 06:25:39;;;;;;;7.57;2.50;;;7.80;99.90;;;10.62;59.19;99476.94;5325630;26;20132;-90
2024/04/26 06:28:06;;;;;;;6.10;2.47;;;7.80;99.90;;;11.19;58.97;99475.16;5332069;26;20011;-91
2024/04/26 06:30:32;;;;;;;5.93;2.45;;;7.90;99.90;;;10.97;58.71;99481.34;5342187;26;20001;-89
2024/04/26 06:32:57;;;;;;;5.00;2.40;;;7.90;99.90;;;10.86;58.61;99477.63;5344623;26;20005;-93
2024/04/26 06:35:23;;;;;;;7.38;2.88;;;8.00;99.90;;;10.46;58.69;99473.94;5339248;26;20008;-88
2024/04/26 06:37:49;;;;;;;6.35;2.97;;;7.90;99.90;;;10.50;58.11;99461.47;5338048;26;20001;-92
2024/04/26 06:40:15;;;;;;;5.00;2.40;;;7.90;99.90;;;10.71;59.36;99471.91;5336470;26;20011;-88
2024/04/26 06:42:40;;;;;;;6.13;2.30;;;7.90;99.90;;;11.36;57.41;99478.66;5345697;26;20349;-89
2024/04/26 06:45:06;;;;;;;4.93;2.35;;;8.20;99.90;;;11.54;57.17;99465.81;5345423;26;20008;-90
2024/04/26 06:47:32;;;;;;;4.43;2.00;;;8.40;99.90;;;11.36;56.58;99454.09;5345256;26;19997;-92
2024/04/26 06:49:57;;;;;;;5.03;2.20;;;8.60;99.90;;;11.40;56.85;99464.50;5345496;26;20008;-91
2024/04/26 06:52:23;;;;;;;7.38;2.45;;;8.70;99.90;;;11.37;57.06;99472.13;5331832;26;20001;-85
2024/04/26 06:54:49;;;;;;;5.80;2.78;;;8.70;99.90;;;11.53;56.73;99469.63;5344721;26;20008;-88
2024/04/26 06:57:15;;;;;;;4.97;2.30;;;8.70;99.90;;;11.35;57.19;99474.28;5339694;26;20428;-82
2024/04/26 06:59:41;;;;;;;5.53;2.28;;;8.70;99.90;;;11.73;56.53;99484.63;5340491;26;20005;-81
2024/04/26 07:02:08;;;;;;;5.38;2.33;;;8.70;99.90;;;11.66;56.50;99479.34;5343965;26;19997;-89
2024/04/26 07:04:34;;;;;;;4.68;2.10;;;8.80;99.90;;;11.73;56.01;99479.97;5339759;26;20015;-87
2024/04/26 07:07:00;;;;;;;6.18;2.50;;;8.90;99.90;;;12.03;55.92;99477.94;5325107;26;20004;-90
2024/04/26 07:09:26;;;;;;;5.05;2.47;;;8.90;99.90;;;11.88;53.81;99456.69;5340766;26;20004;-87
2024/04/26 07:11:53;;;;;;;5.22;2.03;;;9.10;99.90;;;12.23;53.99;99472.72;5342098;26;20056;-89
2024/04/26 07:14:18;;;;;;;11.70;2.50;;;9.10;99.90;;;12.56;52.92;99458.25;5341792;26;20005;-91
2024/04/26 07:16:44;;;;;;;5.32;2.15;;;9.30;99.90;;;12.26;54.08;99470.53;5338383;26;20088;-86
2024/04/26 07:19:10;;;;;;;6.50;2.50;;;9.20;99.90;;;12.34;51.86;99459.97;5327028;26;20005;-85
2024/04/26 07:21:36;;;;;;;6.07;2.30;;;9.20;99.90;;;12.68;51.86;99463.56;5329408;26;20012;-87
2024/04/26 07:24:01;;;;;;;6.82;2.30;;;9.30;99.90;;;12.33;51.55;99443.81;5340595;26;20012;-90
2024/04/26 07:26:32;;;;;;;4.40;2.35;;;9.30;99.90;;;12.65;51.84;99463.00;5337763;26;19997;-87
2024/04/26 07:29:01;;;;;;;6.30;2.63;;;9.30;99.90;;;12.97;51.98;99464.06;5349724;26;20000;-88
2024/04/26 07:31:28;;;;;;;6.22;2.30;;;9.60;99.90;;;12.59;52.12;99464.00;5349038;26;20008;-89
2024/04/26 07:33:54;;;;;;;7.95;2.60;;;9.60;99.90;;;12.82;51.81;99464.78;5336938;26;20015;-89
2024/04/26 07:36:19;;;;;;;6.82;2.35;;;9.60;99.90;;;12.93;50.61;99436.41;5343190;26;20437;-88
2024/04/26 07:38:46;;;;;;;7.28;2.45;;;9.80;99.90;;;12.85;51.17;99449.75;5331099;26;20008;-86
2024/04/26 07:41:15;;;;;;;5.15;2.42;;;9.80;99.90;;;12.22;52.16;99446.44;5361697;26;20017;-90
2024/04/26 07:43:41;;;;;;;6.47;2.30;;;9.70;99.90;;;12.20;52.59;99458.72;5336097;26;20005;-85
2024/04/26 07:46:07;;;;;;;8.07;2.85;;;9.60;99.90;;;12.21;52.77;99461.22;5357453;26;20001;-90
2024/04/26 07:48:33;;;;;;;5.22;2.33;;;9.70;99.90;;;12.87;51.47;99459.38;5345967;26;19993;-88
2024/04/26 07:50:59;;;;;;;7.72;2.60;;;10.00;99.90;;;13.27;50.81;99459.09;5350833;26;20012;-88
2024/04/26 07:53:24;;;;;;;5.65;2.30;;;10.30;99.90;;;13.50;51.60;99466.09;5355707;26;20001;-91
2024/04/26 07:55:50;;;;;;;5.60;2.40;;;10.50;99.90;;;13.33;50.96;99450.66;5340831;26;20009;-90
2024/04/26 07:58:16;;;;;;;7.45;2.33;;;10.60;99.90;;;13.11;51.19;99458.16;5342615;26;20000;-85
2024/04/26 08:00:42;;;;;;;5.55;2.50;;;10.40;99.90;;;12.94;51.74;99459.13;5343352;26;19997;-88
2024/04/26 08:03:07;;;;;;;7.63;2.95;;;10.30;99.90;;;12.77;51.90;99451.03;5314537;26;20016;-88
2024/04/26 08:05:33;;;;;;;5.53;2.47;;;10.20;99.90;;;12.43;52.47;99463.03;5296118;26;20001;-85
2024/04/26 08:07:59;;;;;;;7.80;2.75;;;10.00;99.90;;;13.14;52.17;99479.53;5346229;26;20408;-92
2024/04/26 08:10:25;;;;;;;6.07;2.33;;;10.00;99.90;;;13.65;52.04;99477.16;5348364;26;20015;-89
2024/04/26 08:12:50;;;;;;;5.70;2.70;;;10.30;99.90;;;13.07;51.61;99466.06;5316024;26;20278;-88
2024/04/26 08:15:16;;;;;;;6.50;2.95;;;10.30;99.90;;;13.64;51.07;99459.06;5332904;26;20005;-89
2024/04/26 08:17:42;;;;;;;7.95;3.00;;;10.40;99.90;;;13.64;51.85;99472.75;5327327;26;20404;-89
2024/04/26 08:20:11;;;;;;;11.15;3.40;;;10.60;99.90;;;13.12;52.16;99476.22;5327804;26;20012;-90
2024/04/26 08:22:37;;;;;;;5.07;2.63;;;10.50;99.90;;;13.23;51.12;99461.50;5307064;26;19998;-89
2024/04/26 08:25:03;;;;;;;7.25;2.60;;;10.50;99.90;;;13.66;51.61;99475.25;5318042;26;20441;-89
2024/04/26 08:27:29;;;;;;;6.60;2.50;;;10.60;99.90;;;13.95;51.82;99472.91;5330594;26;20316;-87
2024/04/26 08:29:54;;;;;;;6.63;2.78;;;10.80;99.90;;;13.49;51.01;99458.97;5333969;26;20012;-85
2024/04/26 08:32:25;;;;;;;5.78;2.65;;;10.80;99.90;;;13.15;51.06;99451.91;5340023;26;20012;-84
2024/04/26 08:34:51;;;;;;;6.72;2.92;;;10.70;99.90;;;14.01;52.12;99487.47;5349049;26;20714;-87
2024/04/26 08:37:19;;;;;;;6.47;2.72;;;10.80;99.90;;;14.42;49.88;99463.97;5338699;26;20442;-89
2024/04/26 08:39:46;;;;;;;7.68;2.83;;;11.10;99.90;;;14.49;49.24;99454.41;5339269;26;20412;-85
2024/04/26 08:42:14;;;;;;;8.65;2.80;;;11.40;99.90;;;14.88;49.38;99472.31;5341517;26;20070;-82
2024/04/26 08:44:43;;;;;;;8.45;2.80;;;11.50;99.90;;;14.93;48.53;99452.25;5332649;26;20337;-92
2024/04/26 08:47:11;;;;;;;9.90;3.55;;;11.70;99.90;;;15.05;47.04;99439.06;5340154;26;20424;-84
2024/04/26 08:49:43;;;;;;;;;;;11.80;99.90;;;15.21;47.99;99461.03;5327035;26;20009;-84
2024/04/26 08:52:11;;;;;;;8.30;3.28;;;11.80;99.90;;;15.33;47.42;99450.56;5364442;26;19984;-85
2024/04/26 08:54:37;;;;;;;11.15;3.50;;;11.80;99.90;;;15.34;46.48;99438.47;5341147;26;20304;-84
2024/04/26 08:57:03;;;;;;;5.57;2.70;;;12.00;99.90;;;15.30;45.99;99439.31;5333216;26;20076;-85
2024/04/26 08:59:51;;;;;;;6.95;3.30;;;12.10;99.90;;;15.32;46.25;99435.16;5340628;26;20010;-85
2024/04/26 09:02:17;;;;;;;8.35;3.08;;;12.00;99.90;;;15.57;46.22;99444.44;5349502;26;20440;-86
2024/04/26 09:04:47;;;;;;;9.32;3.42;;;12.00;99.90;;;16.30;46.11;99460.69;5333190;26;20016;-83
2024/04/26 09:07:13;;;;;;;12.15;4.00;;;12.20;99.90;;;16.18;45.36;99447.25;5316476;26;20449;-84
2024/04/26 09:09:39;;;;;;;8.93;3.35;;;12.30;99.90;;;15.74;45.56;99441.38;5343789;26;20008;-82
2024/04/26 09:12:05;;;;;;;9.23;2.95;;;12.20;99.90;;;15.83;44.18;99408.63;5342091;26;20081;-88
2024/04/26 09:14:31;;;;;;;7.03;2.70;;;12.40;99.90;;;15.92;44.72;99433.63;5338347;26;20402;-85
2024/04/26 09:16:57;;;;;;;7.47;3.05;;;12.30;99.90;;;16.04;44.32;99436.84;5340552;26;20001;-83
2024/04/26 09:19:23;;;;;;;6.20;2.90;;;12.30;99.90;;;16.27;44.35;99439.22;5311320;26;20037;-84
2024/04/26 09:21:49;;;;;;;6.10;3.10;;;12.40;99.90;;;16.59;43.76;99429.66;5333637;26;20752;-85
2024/04/26 09:24:14;;;;;;;8.77;3.03;;;12.50;99.90;;;16.07;43.81;99416.22;5338650;26;20001;-85
2024/04/26 09:26:40;;;;;;;8.85;2.85;;;12.40;99.90;;;16.50;43.73;99438.53;5343468;26;20649;-92
2024/04/26 09:29:06;;;;;;;8.60;2.88;;;12.50;99.90;;;16.54;44.04;99449.78;5341451;26;20005;-87
2024/04/26 09:31:33;;;;;;;6.93;2.80;;;12.70;99.90;;;16.36;44.09;99426.50;5312413;26;20995;-91
2024/04/26 09:34:05;;;;;;;8.25;2.60;;;12.70;99.90;;;16.12;44.41;99446.44;5336658;26;20017;-87
2024/04/26 09:36:36;;;;;;;8.40;2.75;;;12.50;99.90;;;16.05;43.72;99434.94;5322659;26;19998;-86
2024/04/26 09:39:04;;;;;;;8.52;2.97;;;12.50;99.90;;;16.44;44.16;99458.91;5336854;26;20016;-85
2024/04/26 09:41:32;;;;;;;9.85;2.60;;;12.50;99.90;;;16.06;43.49;99442.09;5332274;26;19997;-89
2024/04/26 09:44:02;;;;;;;5.50;2.50;;;12.50;99.90;;;15.86;42.93;99418.25;5336725;26;20337;-85
2024/04/26 09:46:29;;;;;;;8.18;2.60;;;12.50;99.90;;;16.21;43.14;99425.50;5324101;26;20405;-86
2024/04/26 09:48:55;;;;;;;8.00;2.50;;;12.70;99.90;;;16.56;43.46;99441.25;5336481;26;20591;-85
2024/04/26 09:51:26;;;;;;;7.45;2.67;;;;;;;16.92;43.22;99452.81;5327627;26;20011;-85
2024/04/26 09:53:53;;;;;;;7.88;2.75;;;;;;;17.00;42.20;99439.53;5329897;26;20006;-85
2024/04/26 09:56:19;;;;;;;9.35;2.85;;;12.90;99.90;;;16.68;42.21;99417.75;5333126;26;20005;-86
2024/04/26 09:58:45;;;;;;;7.97;2.75;;;12.90;99.30;;;16.12;42.93;99415.38;5325145;26;20017;-86
2024/04/26 10:01:16;;;;;;;6.45;2.33;;;13.00;99.40;;;17.56;42.09;99440.06;5335646;26;20072;-87
2024/04/26 10:03:43;;;;;;;6.57;2.75;;;;;;;17.23;41.90;99436.00;5346709;26;20000;-86
2024/04/26 10:06:12;;;;;;;8.20;2.92;;;;;;;16.79;42.28;99426.75;5333934;26;20456;-85
2024/04/26 10:08:40;;;;;;;5.65;2.42;;;13.00;99.80;;;17.35;42.72;99445.81;5332846;26;20096;-90
2024/04/26 10:11:10;;;;;;;7.50;2.55;;;;;;;18.05;41.60;99452.75;5363041;26;20536;-85
2024/04/26 10:13:56;;;;;;;7.32;2.50;;;;;;;18.80;40.94;99449.47;5329939;26;20001;-86
2024/04/26 10:16:36;;;;;;;7.18;2.33;;;;;;;18.37;39.70;99409.78;5335140;26;20024;-87
2024/04/26 10:19:15;;;;;;;6.38;2.75;;;;;;;18.24;39.87;99416.88;5362185;26;20415;-87
2024/04/26 10:21:42;;;;;;;6.28;2.60;;;;;;;17.95;39.62;99412.28;5341907;26;20057;-86
2024/04/26 10:24:08;;;;;;;7.00;2.80;;;;;;;17.80;41.25;99420.78;5340389;26;20077;-87
2024/04/26 10:26:34;;;;;;;7.85;2.92;;;;;;;18.15;39.78;99418.69;5339581;26;20039;-86
2024/04/26 10:29:10;;;;;;;7.38;3.00;;;;;;;18.01;40.88;99423.25;5334862;26;20016;-90
2024/04/26 10:31:38;;;;;;;8.63;2.78;;;;;;;18.31;41.46;99443.31;5341942;26;20013;-90